Locarno, Switzerland
Current Conditions -  °F | °C
As of 5:50 AM on Thursday 23 Oct 2014 (Local Time) from LSZL Reporting Station
Clear Clear  
Wind Chill: 54°   Ceiling: Unl
Heat Index: 54°   Visibility: 6mi
Dew Point: 28°   Wind: 12mph
Humidity: 38%   Direction: 120°ESE
Pressure: 29.94"   Gusts: NA
Location:  46.18°N, 8.79°E
Report Text: LSZL 230350Z AUTO 12010KT 080V150 9999NDV NCD 12/M02 Q1014 RMK BLU
Loading
Personal Weather Stations






























Interactive Weather Map
Tropical Storm Tracking
New forecast layout! Learn more

10-Day Weather Forecast

Advertisements
Track Severe Weather on mobile